sensor_id;sensor_type;location;lat;lon;timestamp;pressure;altitude;pressure_sealevel;temperature;humidity
29879;BME280;16752;53.364;-1.488;2022-11-20T00:02:04;99728.72;;;15.05;47.35
29879;BME280;16752;53.364;-1.488;2022-11-20T00:04:30;99712.28;;;15.38;46.17
29879;BME280;16752;53.364;-1.488;2022-11-20T00:06:56;99778.03;;;15.32;47.24
29879;BME280;16752;53.364;-1.488;2022-11-20T00:09:22;99696.47;;;15.38;46.77
29879;BME280;16752;53.364;-1.488;2022-11-20T00:11:48;99723.97;;;15.08;47.37
29879;BME280;16752;53.364;-1.488;2022-11-20T00:14:13;99720.94;;;15.58;46.02
29879;BME280;16752;53.364;-1.488;2022-11-20T00:16:39;99718.31;;;15.31;46.35
29879;BME280;16752;53.364;-1.488;2022-11-20T00:19:04;99730.66;;;16.03;45.29
29879;BME280;16752;53.364;-1.488;2022-11-20T00:21:30;99750.53;;;15.34;47.29
29879;BME280;16752;53.364;-1.488;2022-11-20T00:23:57;99688.28;;;14.77;47.45
29879;BME280;16752;53.364;-1.488;2022-11-20T00:26:24;99768.00;;;15.35;47.16
29879;BME280;16752;53.364;-1.488;2022-11-20T00:28:54;99704.22;;;14.85;47.48
29879;BME280;16752;53.364;-1.488;2022-11-20T00:31:20;99703.53;;;14.83;48.48
29879;BME280;16752;53.364;-1.488;2022-11-20T00:33:45;99733.91;;;14.87;48.61
29879;BME280;16752;53.364;-1.488;2022-11-20T00:36:14;99729.06;;;15.47;47.20
29879;BME280;16752;53.364;-1.488;2022-11-20T00:38:40;99737.31;;;15.89;46.17
29879;BME280;16752;53.364;-1.488;2022-11-20T00:41:08;99713.72;;;15.60;46.95
29879;BME280;16752;53.364;-1.488;2022-11-20T00:43:36;99741.38;;;15.28;47.36
29879;BME280;16752;53.364;-1.488;2022-11-20T00:46:17;99725.09;;;15.06;48.21
29879;BME280;16752;53.364;-1.488;2022-11-20T00:48:43;99682.88;;;15.61;46.30
29879;BME280;16752;53.364;-1.488;2022-11-20T00:51:12;99678.69;;;15.58;46.33
29879;BME280;16752;53.364;-1.488;2022-11-20T00:53:38;99675.94;;;15.59;45.93
29879;BME280;16752;53.364;-1.488;2022-11-20T00:56:10;99721.75;;;15.68;46.61
29879;BME280;16752;53.364;-1.488;2022-11-20T00:58:37;99672.56;;;15.67;46.07
29879;BME280;16752;53.364;-1.488;2022-11-20T01:01:08;99709.47;;;16.12;45.47
29879;BME280;16752;53.364;-1.488;2022-11-20T01:03:35;99621.31;;;15.60;45.70
29879;BME280;16752;53.364;-1.488;2022-11-20T01:06:16;99683.03;;;15.95;45.77
29879;BME280;16752;53.364;-1.488;2022-11-20T01:08:43;99703.56;;;16.18;45.59
29879;BME280;16752;53.364;-1.488;2022-11-20T01:11:11;99617.69;;;15.16;46.59
29879;BME280;16752;53.364;-1.488;2022-11-20T01:13:38;99637.00;;;15.44;46.17
29879;BME280;16752;53.364;-1.488;2022-11-20T01:16:10;99684.72;;;15.50;46.94
29879;BME280;16752;53.364;-1.488;2022-11-20T01:18:39;99651.84;;;15.45;46.72
29879;BME280;16752;53.364;-1.488;2022-11-20T01:21:07;99664.03;;;16.09;45.74
29879;BME280;16752;53.364;-1.488;2022-11-20T01:23:34;99644.38;;;16.11;45.25
29879;BME280;16752;53.364;-1.488;2022-11-20T01:26:05;99668.28;;;15.84;46.24
29879;BME280;16752;53.364;-1.488;2022-11-20T01:28:31;99660.97;;;16.22;45.33
29879;BME280;16752;53.364;-1.488;2022-11-20T01:30:57;99560.25;;;14.64;47.15
29879;BME280;16752;53.364;-1.488;2022-11-20T01:33:24;99634.00;;;15.92;45.47
29879;BME280;16752;53.364;-1.488;2022-11-20T01:35:50;99650.19;;;16.15;45.20
29879;BME280;16752;53.364;-1.488;2022-11-20T01:38:16;99565.19;;;15.40;45.73
29879;BME280;16752;53.364;-1.488;2022-11-20T01:40:42;99594.38;;;15.74;45.47
29879;BME280;16752;53.364;-1.488;2022-11-20T01:43:26;99596.94;;;15.31;46.20
29879;BME280;16752;53.364;-1.488;2022-11-20T01:46:12;99636.59;;;15.56;46.58
29879;BME280;16752;53.364;-1.488;2022-11-20T01:48:52;99613.13;;;15.63;46.10
29879;BME280;16752;53.364;-1.488;2022-11-20T01:51:28;99561.94;;;15.28;46.26
29879;BME280;16752;53.364;-1.488;2022-11-20T01:53:58;99480.00;;;15.12;44.96
29879;BME280;16752;53.364;-1.488;2022-11-20T01:56:27;99579.88;;;15.78;45.25
29879;BME280;16752;53.364;-1.488;2022-11-20T01:58:58;99599.38;;;15.59;45.83
29879;BME280;16752;53.364;-1.488;2022-11-20T02:01:26;99537.38;;;15.46;45.68
29879;BME280;16752;53.364;-1.488;2022-11-20T02:03:58;99554.56;;;15.68;45.60
29879;BME280;16752;53.364;-1.488;2022-11-20T02:06:35;99527.41;;;15.40;45.44
29879;BME280;16752;53.364;-1.488;2022-11-20T02:09:03;99599.66;;;14.93;47.82
29879;BME280;16752;53.364;-1.488;2022-11-20T02:11:30;99501.69;;;14.88;46.84
29879;BME280;16752;53.364;-1.488;2022-11-20T02:13:56;99523.41;;;15.00;46.57
29879;BME280;16752;53.364;-1.488;2022-11-20T02:16:25;99599.19;;;15.97;45.39
29879;BME280;16752;53.364;-1.488;2022-11-20T02:18:53;99551.09;;;15.67;45.57
29879;BME280;16752;53.364;-1.488;2022-11-20T02:21:37;99479.56;;;14.99;46.11
29879;BME280;16752;53.364;-1.488;2022-11-20T02:24:14;99481.84;;;15.38;45.32
29879;BME280;16752;53.364;-1.488;2022-11-20T02:26:48;99575.59;;;15.77;45.99
29879;BME280;16752;53.364;-1.488;2022-11-20T02:29:24;99519.50;;;14.22;48.79
29879;BME280;16752;53.364;-1.488;2022-11-20T02:31:53;99434.63;;;13.44;50.03
29879;BME280;16752;53.364;-1.488;2022-11-20T02:34:20;99473.56;;;14.61;47.68
29879;BME280;16752;53.364;-1.488;2022-11-20T02:36:46;99542.78;;;14.63;47.91
29879;BME280;16752;53.364;-1.488;2022-11-20T02:39:15;99464.91;;;14.14;48.21
29879;BME280;16752;53.364;-1.488;2022-11-20T02:41:42;99478.78;;;14.06;48.74
29879;BME280;16752;53.364;-1.488;2022-11-20T02:44:07;99424.56;;;13.20;50.18
29879;BME280;16752;53.364;-1.488;2022-11-20T02:46:34;99522.88;;;14.79;47.90
29879;BME280;16752;53.364;-1.488;2022-11-20T02:49:02;99476.28;;;14.15;48.44
29879;BME280;16752;53.364;-1.488;2022-11-20T02:51:28;99433.34;;;14.04;48.22
29879;BME280;16752;53.364;-1.488;2022-11-20T02:53:54;99449.13;;;14.04;48.61
29879;BME280;16752;53.364;-1.488;2022-11-20T02:56:19;99446.63;;;13.66;49.80
29879;BME280;16752;53.364;-1.488;2022-11-20T02:58:45;99417.25;;;14.35;48.10
29879;BME280;16752;53.364;-1.488;2022-11-20T03:01:11;99454.00;;;13.99;49.73
29879;BME280;16752;53.364;-1.488;2022-11-20T03:03:36;99452.94;;;14.75;47.40
29879;BME280;16752;53.364;-1.488;2022-11-20T03:06:03;99491.38;;;15.31;47.08
29879;BME280;16752;53.364;-1.488;2022-11-20T03:08:28;99392.94;;;13.86;48.62
29879;BME280;16752;53.364;-1.488;2022-11-20T03:10:55;99426.06;;;14.53;47.84
29879;BME280;16752;53.364;-1.488;2022-11-20T03:13:21;99385.06;;;14.14;48.33
29879;BME280;16752;53.364;-1.488;2022-11-20T03:15:46;99497.53;;;14.68;48.50
29879;BME280;16752;53.364;-1.488;2022-11-20T03:18:12;99371.22;;;14.12;48.12
29879;BME280;16752;53.364;-1.488;2022-11-20T03:20:39;99427.78;;;14.07;48.97
29879;BME280;16752;53.364;-1.488;2022-11-20T03:23:04;99352.75;;;14.39;47.63
29879;BME280;16752;53.364;-1.488;2022-11-20T03:25:30;99327.84;;;14.51;47.05
29879;BME280;16752;53.364;-1.488;2022-11-20T03:27:56;99371.44;;;14.81;46.95
29879;BME280;16752;53.364;-1.488;2022-11-20T03:30:22;99394.94;;;14.75;47.60
29879;BME280;16752;53.364;-1.488;2022-11-20T03:32:47;99363.06;;;15.04;46.27
29879;BME280;16752;53.364;-1.488;2022-11-20T03:35:13;99383.97;;;14.34;48.47
29879;BME280;16752;53.364;-1.488;2022-11-20T03:37:39;99413.41;;;14.57;48.12
29879;BME280;16752;53.364;-1.488;2022-11-20T03:40:05;99356.53;;;13.54;50.13
29879;BME280;16752;53.364;-1.488;2022-11-20T03:42:31;99379.97;;;14.75;48.23
29879;BME280;16752;53.364;-1.488;2022-11-20T03:45:15;99281.09;;;13.72;49.30
29879;BME280;16752;53.364;-1.488;2022-11-20T03:47:42;99286.38;;;13.63;49.71
29879;BME280;16752;53.364;-1.488;2022-11-20T03:50:08;99330.97;;;14.19;48.78
29879;BME280;16752;53.364;-1.488;2022-11-20T03:52:34;99408.19;;;14.83;48.13
29879;BME280;16752;53.364;-1.488;2022-11-20T03:54:59;99287.63;;;13.86;49.39
29879;BME280;16752;53.364;-1.488;2022-11-20T03:57:25;99374.91;;;14.46;49.13
29879;BME280;16752;53.364;-1.488;2022-11-20T03:59:50;99311.72;;;13.64;50.29
29879;BME280;16752;53.364;-1.488;2022-11-20T04:02:16;99318.88;;;14.44;48.81
29879;BME280;16752;53.364;-1.488;2022-11-20T04:04:42;99350.16;;;14.12;49.32
29879;BME280;16752;53.364;-1.488;2022-11-20T04:07:07;99336.09;;;14.21;49.87
29879;BME280;16752;53.364;-1.488;2022-11-20T04:09:33;99354.16;;;14.16;50.00
29879;BME280;16752;53.364;-1.488;2022-11-20T04:12:00;99322.72;;;14.67;47.92
29879;BME280;16752;53.364;-1.488;2022-11-20T04:14:25;99302.28;;;14.70;48.42
29879;BME280;16752;53.364;-1.488;2022-11-20T04:16:51;99370.31;;;15.27;47.91
29879;BME280;16752;53.364;-1.488;2022-11-20T04:19:18;99287.84;;;14.20;48.96
29879;BME280;16752;53.364;-1.488;2022-11-20T04:21:44;99276.34;;;13.76;50.41
29879;BME280;16752;53.364;-1.488;2022-11-20T04:24:10;99257.00;;;14.13;49.30
29879;BME280;16752;53.364;-1.488;2022-11-20T04:26:36;99272.34;;;14.35;49.14
29879;BME280;16752;53.364;-1.488;2022-11-20T04:29:03;99308.47;;;13.80;51.07
29879;BME280;16752;53.364;-1.488;2022-11-20T04:31:31;99241.09;;;14.58;47.72
29879;BME280;16752;53.364;-1.488;2022-11-20T04:34:02;99343.28;;;14.46;50.23
29879;BME280;16752;53.364;-1.488;2022-11-20T04:36:29;99347.59;;;14.20;51.00
29879;BME280;16752;53.364;-1.488;2022-11-20T04:39:00;99342.81;;;14.68;49.41
29879;BME280;16752;53.364;-1.488;2022-11-20T04:41:30;99244.94;;;13.92;50.21
29879;BME280;16752;53.364;-1.488;2022-11-20T04:43:58;99252.16;;;14.08;49.84
29879;BME280;16752;53.364;-1.488;2022-11-20T04:46:40;99341.78;;;14.61;49.95
29879;BME280;16752;53.364;-1.488;2022-11-20T04:49:06;99286.38;;;13.63;51.34
29879;BME280;16752;53.364;-1.488;2022-11-20T04:51:56;99338.00;;;14.46;50.33
29879;BME280;16752;53.364;-1.488;2022-11-20T04:57:06;99294.50;;;14.86;48.75
29879;BME280;16752;53.364;-1.488;2022-11-20T04:59:42;99333.44;;;15.18;48.60
29879;BME280;16752;53.364;-1.488;2022-11-20T05:02:08;99286.97;;;14.47;49.25
29879;BME280;16752;53.364;-1.488;2022-11-20T05:07:38;99262.91;;;14.94;47.90
29879;BME280;16752;53.364;-1.488;2022-11-20T05:14:29;99281.53;;;14.13;50.18
29879;BME280;16752;53.364;-1.488;2022-11-20T06:11:30;99289.06;;;15.13;48.63
29879;BME280;16752;53.364;-1.488;2022-11-20T06:14:38;99120.13;;;14.03;49.22
29879;BME280;16752;53.364;-1.488;2022-11-20T06:17:04;99237.22;;;14.96;48.63
29879;BME280;16752;53.364;-1.488;2022-11-20T06:27:09;99260.66;;;14.99;49.16
29879;BME280;16752;53.364;-1.488;2022-11-20T06:29:40;99132.25;;;14.40;48.56
29879;BME280;16752;53.364;-1.488;2022-11-20T06:32:53;99213.22;;;15.07;48.05
29879;BME280;16752;53.364;-1.488;2022-11-20T06:39:04;99227.94;;;14.58;48.95
29879;BME280;16752;53.364;-1.488;2022-11-20T06:41:33;99194.97;;;14.88;48.04
29879;BME280;16752;53.364;-1.488;2022-11-20T06:44:03;99114.88;;;14.29;48.40
29879;BME280;16752;53.364;-1.488;2022-11-20T06:46:32;99193.31;;;14.79;48.54
29879;BME280;16752;53.364;-1.488;2022-11-20T06:52:22;99258.41;;;15.88;46.86
29879;BME280;16752;53.364;-1.488;2022-11-20T06:54:47;99175.91;;;15.36;46.68
29879;BME280;16752;53.364;-1.488;2022-11-20T06:57:16;99105.91;;;14.65;47.95
29879;BME280;16752;53.364;-1.488;2022-11-20T06:59:41;99157.59;;;15.35;46.97
29879;BME280;16752;53.364;-1.488;2022-11-20T07:02:11;99171.81;;;15.42;46.82
29879;BME280;16752;53.364;-1.488;2022-11-20T07:04:37;99125.03;;;15.10;46.92
29879;BME280;16752;53.364;-1.488;2022-11-20T07:07:03;99214.75;;;15.60;46.52
29879;BME280;16752;53.364;-1.488;2022-11-20T07:09:29;99206.56;;;15.37;46.85
29879;BME280;16752;53.364;-1.488;2022-11-20T07:11:55;99133.03;;;14.92;46.51
29879;BME280;16752;53.364;-1.488;2022-11-20T07:14:21;99138.16;;;14.93;46.59
29879;BME280;16752;53.364;-1.488;2022-11-20T07:16:47;99153.50;;;14.98;46.44
29879;BME280;16752;53.364;-1.488;2022-11-20T07:19:12;99223.56;;;15.35;46.38
29879;BME280;16752;53.364;-1.488;2022-11-20T07:21:38;99162.34;;;14.89;46.49
29879;BME280;16752;53.364;-1.488;2022-11-20T07:24:04;99232.47;;;15.34;46.52
29879;BME280;16752;53.364;-1.488;2022-11-20T07:26:30;99250.78;;;15.35;47.06
29879;BME280;16752;53.364;-1.488;2022-11-20T07:28:57;99239.53;;;15.25;46.98
29879;BME280;16752;53.364;-1.488;2022-11-20T07:34:58;99236.13;;;15.41;47.09
29879;BME280;16752;53.364;-1.488;2022-11-20T07:37:26;99145.59;;;14.98;47.14
29879;BME280;16752;53.364;-1.488;2022-11-20T07:39:52;99167.56;;;15.15;46.96
29879;BME280;16752;53.364;-1.488;2022-11-20T07:42:48;99138.81;;;14.95;46.92
29879;BME280;16752;53.364;-1.488;2022-11-20T07:45:45;99207.22;;;15.31;47.03
29879;BME280;16752;53.364;-1.488;2022-11-20T07:48:11;99202.09;;;15.29;47.24
29879;BME280;16752;53.364;-1.488;2022-11-20T07:50:37;99242.75;;;15.53;46.72
29879;BME280;16752;53.364;-1.488;2022-11-20T07:53:14;99247.34;;;15.43;46.71
29879;BME280;16752;53.364;-1.488;2022-11-20T07:55:49;99172.75;;;14.90;46.79
29879;BME280;16752;53.364;-1.488;2022-11-20T07:58:18;99227.47;;;15.22;46.90
29879;BME280;16752;53.364;-1.488;2022-11-20T08:00:47;99234.72;;;15.20;46.79
29879;BME280;16752;53.364;-1.488;2022-11-20T08:03:27;99191.56;;;14.95;46.96
29879;BME280;16752;53.364;-1.488;2022-11-20T08:06:22;99283.81;;;15.47;46.93
29879;BME280;16752;53.364;-1.488;2022-11-20T08:08:55;99179.81;;;14.90;46.85
29879;BME280;16752;53.364;-1.488;2022-11-20T08:11:48;99331.91;;;15.59;47.36
29879;BME280;16752;53.364;-1.488;2022-11-20T08:24:24;99347.50;;;15.18;48.59
29879;BME280;16752;53.364;-1.488;2022-11-20T09:10:43;99355.66;;;17.08;46.85
29879;BME280;16752;53.364;-1.488;2022-11-20T09:13:22;99276.34;;;16.52;46.90
29879;BME280;16752;53.364;-1.488;2022-11-20T09:23:50;99372.72;;;17.14;46.84
29879;BME280;16752;53.364;-1.488;2022-11-20T09:33:51;99244.25;;;16.63;46.83
29879;BME280;16752;53.364;-1.488;2022-11-20T09:36:40;99280.94;;;16.90;46.82
29879;BME280;16752;53.364;-1.488;2022-11-20T09:39:24;99325.94;;;16.74;46.97
29879;BME280;16752;53.364;-1.488;2022-11-20T09:45:11;99359.97;;;17.26;47.11
29879;BME280;16752;53.364;-1.488;2022-11-20T09:47:59;99376.97;;;17.48;46.69
29879;BME280;16752;53.364;-1.488;2022-11-20T09:56:03;99253.84;;;16.96;46.28
29879;BME280;16752;53.364;-1.488;2022-11-20T09:58:48;99343.53;;;17.47;46.78
29879;BME280;16752;53.364;-1.488;2022-11-20T10:01:17;99363.50;;;17.82;46.17
29879;BME280;16752;53.364;-1.488;2022-11-20T10:04:01;99272.00;;;17.07;45.76
29879;BME280;16752;53.364;-1.488;2022-11-20T10:06:33;99291.09;;;17.42;45.53
29879;BME280;16752;53.364;-1.488;2022-11-20T10:09:14;99295.34;;;17.59;45.78
29879;BME280;16752;53.364;-1.488;2022-11-20T10:14:35;99345.97;;;17.73;46.04
29879;BME280;16752;53.364;-1.488;2022-11-20T10:26:22;99358.94;;;18.29;43.72
29879;BME280;16752;53.364;-1.488;2022-11-20T10:29:14;99336.31;;;18.42;44.19
29879;BME280;16752;53.364;-1.488;2022-11-20T10:31:47;99309.91;;;17.55;44.38
29879;BME280;16752;53.364;-1.488;2022-11-20T10:34:26;99286.81;;;18.34;43.56
29879;BME280;16752;53.364;-1.488;2022-11-20T10:37:00;99277.75;;;17.66;43.50
29879;BME280;16752;53.364;-1.488;2022-11-20T10:42:37;99324.19;;;18.93;41.61
29879;BME280;16752;53.364;-1.488;2022-11-20T10:45:26;99267.63;;;19.07;40.33
29879;BME280;16752;53.364;-1.488;2022-11-20T10:48:19;99309.31;;;18.84;40.95
29879;BME280;16752;53.364;-1.488;2022-11-20T10:51:02;99284.06;;;19.55;41.86
29879;BME280;16752;53.364;-1.488;2022-11-20T10:56:15;99344.06;;;19.79;40.25
29879;BME280;16752;53.364;-1.488;2022-11-20T10:59:15;99235.75;;;20.02;38.75
29879;BME280;16752;53.364;-1.488;2022-11-20T11:01:43;99283.41;;;20.61;38.67
29879;BME280;16752;53.364;-1.488;2022-11-20T11:07:19;99338.09;;;20.42;36.52
29879;BME280;16752;53.364;-1.488;2022-11-20T11:09:50;99251.16;;;20.28;36.80
29879;BME280;16752;53.364;-1.488;2022-11-20T11:12:18;99226.31;;;20.92;37.48
29879;BME280;16752;53.364;-1.488;2022-11-20T11:14:50;99268.63;;;20.59;35.73
29879;BME280;16752;53.364;-1.488;2022-11-20T11:17:30;99283.97;;;21.06;35.30
29879;BME280;16752;53.364;-1.488;2022-11-20T11:20:02;99250.59;;;20.54;35.95
29879;BME280;16752;53.364;-1.488;2022-11-20T11:22:31;99312.41;;;20.78;35.51
29879;BME280;16752;53.364;-1.488;2022-11-20T11:24:59;99298.88;;;21.28;35.74
29879;BME280;16752;53.364;-1.488;2022-11-20T11:27:26;99259.56;;;21.78;35.78
29879;BME280;16752;53.364;-1.488;2022-11-20T11:30:11;99321.78;;;21.57;34.85
29879;BME280;16752;53.364;-1.488;2022-11-20T11:32:37;99228.56;;;20.18;34.66
29879;BME280;16752;53.364;-1.488;2022-11-20T11:35:05;99246.91;;;21.46;35.00
29879;BME280;16752;53.364;-1.488;2022-11-20T11:40:44;99233.28;;;20.93;33.61
29879;BME280;16752;53.364;-1.488;2022-11-20T11:43:21;99317.00;;;21.18;34.54
29879;BME280;16752;53.364;-1.488;2022-11-20T11:52:03;99303.41;;;22.23;32.16
29879;BME280;16752;53.364;-1.488;2022-11-20T11:57:03;99252.78;;;21.82;33.01
29879;BME280;16752;53.364;-1.488;2022-11-20T11:59:55;99199.00;;;21.65;31.78
29879;BME280;16752;53.364;-1.488;2022-11-20T12:05:43;99222.97;;;22.40;32.20
29879;BME280;16752;53.364;-1.488;2022-11-20T12:08:26;99173.41;;;21.71;32.21
29879;BME280;16752;53.364;-1.488;2022-11-20T12:10:59;99270.59;;;22.76;31.38
29879;BME280;16752;53.364;-1.488;2022-11-20T12:16:04;99312.00;;;21.30;32.46
29879;BME280;16752;53.364;-1.488;2022-11-20T12:18:30;99229.97;;;20.91;32.73
29879;BME280;16752;53.364;-1.488;2022-11-20T12:21:21;99318.03;;;20.10;35.43
29879;BME280;16752;53.364;-1.488;2022-11-20T12:30:17;99233.38;;;18.68;36.99
29879;BME280;16752;53.364;-1.488;2022-11-20T12:36:19;99326.84;;;19.08;37.85
29879;BME280;16752;53.364;-1.488;2022-11-20T12:41:51;99316.41;;;18.23;37.71
29879;BME280;16752;53.364;-1.488;2022-11-20T12:48:10;99309.31;;;18.15;39.49
29879;BME280;16752;53.364;-1.488;2022-11-20T12:56:41;99310.13;;;19.51;36.97
29879;BME280;16752;53.364;-1.488;2022-11-20T13:01:55;99258.47;;;19.24;37.36
29879;BME280;16752;53.364;-1.488;2022-11-20T13:07:12;99163.00;;;19.16;34.74
29879;BME280;16752;53.364;-1.488;2022-11-20T13:09:58;99312.59;;;19.97;35.46
29879;BME280;16752;53.364;-1.488;2022-11-20T13:15:14;99315.03;;;18.96;37.16
29879;BME280;16752;53.364;-1.488;2022-11-20T13:17:52;99272.91;;;18.09;37.47
29879;BME280;16752;53.364;-1.488;2022-11-20T13:20:19;99265.72;;;18.41;37.44
29879;BME280;16752;53.364;-1.488;2022-11-20T13:22:47;99250.31;;;18.59;36.75
29879;BME280;16752;53.364;-1.488;2022-11-20T13:25:34;99260.78;;;18.38;36.95
29879;BME280;16752;53.364;-1.488;2022-11-20T13:30:36;99254.63;;;17.60;38.24
29879;BME280;16752;53.364;-1.488;2022-11-20T13:33:07;99236.13;;;18.52;37.12
29879;BME280;16752;53.364;-1.488;2022-11-20T13:35:36;99289.56;;;18.86;37.00
29879;BME280;16752;53.364;-1.488;2022-11-20T13:38:08;99203.41;;;18.22;37.06
29879;BME280;16752;53.364;-1.488;2022-11-20T13:40:37;99251.59;;;18.86;37.17
29879;BME280;16752;53.364;-1.488;2022-11-20T13:45:42;99311.22;;;18.29;38.17
29879;BME280;16752;53.364;-1.488;2022-11-20T13:48:21;99323.97;;;18.80;38.37
29879;BME280;16752;53.364;-1.488;2022-11-20T13:56:58;99265.56;;;17.49;38.63
29879;BME280;16752;53.364;-1.488;2022-11-20T14:02:18;99237.75;;;17.06;38.25
29879;BME280;16752;53.364;-1.488;2022-11-20T14:04:47;99275.25;;;17.26;38.31
29879;BME280;16752;53.364;-1.488;2022-11-20T14:07:16;99296.31;;;17.97;37.41
29879;BME280;16752;53.364;-1.488;2022-11-20T14:09:56;99301.31;;;18.00;38.39
29879;BME280;16752;53.364;-1.488;2022-11-20T14:12:28;99302.41;;;17.20;39.22
29879;BME280;16752;53.364;-1.488;2022-11-20T14:14:55;99241.81;;;17.72;37.46
29879;BME280;16752;53.364;-1.488;2022-11-20T14:17:29;99175.91;;;17.46;37.61
29879;BME280;16752;53.364;-1.488;2022-11-20T14:19:58;99260.00;;;17.83;38.29
29879;BME280;16752;53.364;-1.488;2022-11-20T14:22:26;99253.34;;;17.87;38.23
29879;BME280;16752;53.364;-1.488;2022-11-20T14:25:18;99240.66;;;16.72;39.37
29879;BME280;16752;53.364;-1.488;2022-11-20T14:27:51;99282.22;;;18.05;38.38
29879;BME280;16752;53.364;-1.488;2022-11-20T14:30:21;99250.78;;;17.63;38.61
29879;BME280;16752;53.364;-1.488;2022-11-20T14:32:47;99231.44;;;17.54;38.46
29879;BME280;16752;53.364;-1.488;2022-11-20T14:35:20;99197.66;;;17.64;38.30
29879;BME280;16752;53.364;-1.488;2022-11-20T14:37:47;99174.84;;;16.77;39.80
29879;BME280;16752;53.364;-1.488;2022-11-20T14:40:31;99271.41;;;17.84;39.35
29879;BME280;16752;53.364;-1.488;2022-11-20T14:42:58;99182.63;;;17.26;38.82
29879;BME280;16752;53.364;-1.488;2022-11-20T14:45:25;99234.06;;;17.62;39.28
29879;BME280;16752;53.364;-1.488;2022-11-20T14:47:52;99220.81;;;17.70;38.98
29879;BME280;16752;53.364;-1.488;2022-11-20T14:50:24;99307.31;;;18.17;39.14
29879;BME280;16752;53.364;-1.488;2022-11-20T14:52:55;99159.19;;;17.15;39.04
29879;BME280;16752;53.364;-1.488;2022-11-20T14:55:32;99200.31;;;17.56;39.46
29879;BME280;16752;53.364;-1.488;2022-11-20T14:58:02;99184.59;;;17.55;39.42
29879;BME280;16752;53.364;-1.488;2022-11-20T15:00:33;99288.91;;;17.93;40.16
29879;BME280;16752;53.364;-1.488;2022-11-20T15:02:59;99272.78;;;17.71;39.62
29879;BME280;16752;53.364;-1.488;2022-11-20T15:05:43;99305.06;;;18.06;39.60
29879;BME280;16752;53.364;-1.488;2022-11-20T15:08:11;99181.38;;;17.45;39.45
29879;BME280;16752;53.364;-1.488;2022-11-20T15:10:37;99136.66;;;17.19;39.33
29879;BME280;16752;53.364;-1.488;2022-11-20T15:13:13;99184.31;;;17.50;39.57
29879;BME280;16752;53.364;-1.488;2022-11-20T15:15:51;99131.19;;;16.81;40.04
29879;BME280;16752;53.364;-1.488;2022-11-20T15:18:27;99196.72;;;17.49;40.65
29879;BME280;16752;53.364;-1.488;2022-11-20T15:20:55;99224.78;;;17.66;40.42
29879;BME280;16752;53.364;-1.488;2022-11-20T15:23:22;99220.84;;;17.62;40.68
29879;BME280;16752;53.364;-1.488;2022-11-20T15:25:48;99222.13;;;17.35;40.37
29879;BME280;16752;53.364;-1.488;2022-11-20T15:28:23;99190.78;;;17.16;41.13
29879;BME280;16752;53.364;-1.488;2022-11-20T15:31:01;99231.63;;;17.53;41.03
29879;BME280;16752;53.364;-1.488;2022-11-20T15:33:28;99204.25;;;16.66;41.83
29879;BME280;16752;53.364;-1.488;2022-11-20T15:35:54;99215.06;;;17.20;40.77
29879;BME280;16752;53.364;-1.488;2022-11-20T15:38:20;99251.41;;;17.34;41.38
29879;BME280;16752;53.364;-1.488;2022-11-20T15:40:46;99227.53;;;17.03;41.14
29879;BME280;16752;53.364;-1.488;2022-11-20T15:43:12;99202.94;;;16.78;41.43
29879;BME280;16752;53.364;-1.488;2022-11-20T15:46:11;99248.88;;;17.01;41.21
29879;BME280;16752;53.364;-1.488;2022-11-20T15:48:51;99194.34;;;16.60;41.38
29879;BME280;16752;53.364;-1.488;2022-11-20T15:51:28;99266.41;;;16.45;41.00
29879;BME280;16752;53.364;-1.488;2022-11-20T15:53:55;99313.44;;;17.31;40.60
29879;BME280;16752;53.364;-1.488;2022-11-20T15:56:21;99317.47;;;17.19;40.49
29879;BME280;16752;53.364;-1.488;2022-11-20T15:58:47;99200.00;;;16.32;41.19
29879;BME280;16752;53.364;-1.488;2022-11-20T16:01:17;99361.94;;;17.40;40.01
29879;BME280;16752;53.364;-1.488;2022-11-20T16:03:46;99352.38;;;16.82;39.77
29879;BME280;16752;53.364;-1.488;2022-11-20T16:06:25;99373.16;;;17.34;39.79
29879;BME280;16752;53.364;-1.488;2022-11-20T16:08:54;99274.19;;;16.31;40.19
29879;BME280;16752;53.364;-1.488;2022-11-20T16:11:20;99224.13;;;16.29;39.93
29879;BME280;16752;53.364;-1.488;2022-11-20T16:13:49;99234.03;;;16.35;39.14
29879;BME280;16752;53.364;-1.488;2022-11-20T16:16:39;99386.00;;;16.31;40.95
29879;BME280;16752;53.364;-1.488;2022-11-20T16:19:13;99216.53;;;15.51;40.89
29879;BME280;16752;53.364;-1.488;2022-11-20T16:21:41;99322.47;;;16.73;40.21
29879;BME280;16752;53.364;-1.488;2022-11-20T16:24:11;99316.13;;;15.75;42.27
29879;BME280;16752;53.364;-1.488;2022-11-20T16:26:41;99395.75;;;16.31;41.80
29879;BME280;16752;53.364;-1.488;2022-11-20T16:29:10;99265.94;;;15.67;42.12
29879;BME280;16752;53.364;-1.488;2022-11-20T16:31:38;99250.72;;;15.61;41.07
29879;BME280;16752;53.364;-1.488;2022-11-20T16:34:07;99348.13;;;16.14;40.89
29879;BME280;16752;53.364;-1.488;2022-11-20T16:36:33;99318.22;;;15.38;41.95
29879;BME280;16752;53.364;-1.488;2022-11-20T16:39:02;99416.47;;;15.49;42.81
29879;BME280;16752;53.364;-1.488;2022-11-20T16:41:32;99325.69;;;15.16;41.63
29879;BME280;16752;53.364;-1.488;2022-11-20T16:44:00;99431.13;;;16.04;41.47
29879;BME280;16752;53.364;-1.488;2022-11-20T16:46:28;99402.25;;;14.63;43.43
29879;BME280;16752;53.364;-1.488;2022-11-20T16:48:59;99248.25;;;14.48;42.60
29879;BME280;16752;53.364;-1.488;2022-11-20T16:51:27;99253.94;;;13.72;44.71
29879;BME280;16752;53.364;-1.488;2022-11-20T16:53:53;99282.97;;;13.80;43.91
29879;BME280;16752;53.364;-1.488;2022-11-20T16:56:24;99344.97;;;14.91;42.69
29879;BME280;16752;53.364;-1.488;2022-11-20T16:58:53;99279.47;;;13.62;44.08
29879;BME280;16752;53.364;-1.488;2022-11-20T17:01:21;99289.25;;;14.68;42.53
29879;BME280;16752;53.364;-1.488;2022-11-20T17:03:54;99321.38;;;14.63;42.88
29879;BME280;16752;53.364;-1.488;2022-11-20T17:06:22;99279.56;;;14.68;42.00
29879;BME280;16752;53.364;-1.488;2022-11-20T17:08:48;99293.88;;;14.13;43.21
29879;BME280;16752;53.364;-1.488;2022-11-20T17:11:15;99362.25;;;14.67;43.52
29879;BME280;16752;53.364;-1.488;2022-11-20T17:13:42;99338.72;;;14.92;42.92
29879;BME280;16752;53.364;-1.488;2022-11-20T17:16:13;99349.44;;;14.73;42.67